createdAt,value
2018-07-22T00:00:38.070Z,1018.04
2018-07-22T00:01:38.654Z,1018.10
2018-07-22T00:02:39.240Z,1018.07
2018-07-22T00:03:39.873Z,1018.10
2018-07-22T00:04:40.459Z,1018.12
2018-07-22T00:05:41.045Z,1018.12
2018-07-22T00:06:41.628Z,1018.08
2018-07-22T00:07:42.213Z,1018.09
2018-07-22T00:08:42.798Z,1017.99
2018-07-22T00:09:43.434Z,1018.01
2018-07-22T00:10:44.022Z,1018.08
2018-07-22T00:11:44.608Z,1018.05
2018-07-22T00:12:45.192Z,1018.14
2018-07-22T00:13:45.777Z,1018.03
2018-07-22T00:14:46.363Z,1018.04
2018-07-22T00:15:46.944Z,1018.09
2018-07-22T00:16:47.533Z,1017.92
2018-07-22T00:17:48.112Z,1017.97
2018-07-22T00:18:48.698Z,1017.99
2018-07-22T00:19:49.284Z,1017.97
2018-07-22T00:20:49.870Z,1017.88
2018-07-22T00:21:50.507Z,1017.96
2018-07-22T00:22:51.094Z,1017.90
2018-07-22T00:23:51.777Z,1017.94
2018-07-22T00:24:52.413Z,1017.83
2018-07-22T00:25:52.998Z,1017.86
2018-07-22T00:26:53.584Z,1017.88
2018-07-22T00:27:54.166Z,1017.86
2018-07-22T00:28:54.755Z,1017.87
2018-07-22T00:29:55.340Z,1017.83
2018-07-22T00:30:55.924Z,1017.83
2018-07-22T00:31:56.503Z,1017.85
2018-07-22T00:32:57.093Z,1017.75
2018-07-22T00:33:57.678Z,1017.80
2018-07-22T00:34:58.313Z,1017.74
2018-07-22T00:35:58.900Z,1017.77
2018-07-22T00:36:59.533Z,1017.74
2018-07-22T00:38:00.161Z,1017.73
2018-07-22T00:39:00.750Z,1017.75
2018-07-22T00:40:01.338Z,1017.72
2018-07-22T00:41:01.922Z,1017.77
2018-07-22T00:42:02.506Z,1017.75
2018-07-22T00:43:03.089Z,1017.72
2018-07-22T00:44:08.827Z,1017.72
2018-07-22T00:45:09.413Z,1017.66
2018-07-22T00:46:10.048Z,1017.71
2018-07-22T00:47:10.684Z,1017.71
2018-07-22T00:48:11.271Z,1017.70
2018-07-22T00:49:11.856Z,1017.65
2018-07-22T00:50:12.439Z,1017.64
2018-07-22T00:51:13.027Z,1017.58
2018-07-22T00:52:13.662Z,1017.60
2018-07-22T00:53:14.298Z,1017.60
2018-07-22T00:54:14.881Z,1017.58
2018-07-22T00:55:15.471Z,1017.59
2018-07-22T00:56:16.053Z,1017.57
2018-07-22T00:57:16.633Z,1017.57
2018-07-22T00:58:17.215Z,1017.56
2018-07-22T00:59:17.805Z,1017.55
2018-07-22T01:00:18.472Z,1017.55
2018-07-22T01:01:18.970Z,1017.52
2018-07-22T01:02:19.559Z,1017.57
2018-07-22T01:03:20.146Z,1017.57
2018-07-22T01:04:20.822Z,1017.63
2018-07-22T01:05:21.406Z,1017.54
2018-07-22T01:06:21.992Z,1017.47
2018-07-22T01:07:22.580Z,1017.55
2018-07-22T01:08:23.207Z,1017.49
2018-07-22T01:09:23.795Z,1017.51
2018-07-22T01:10:24.381Z,1017.48
2018-07-22T01:11:25.015Z,1017.47
2018-07-22T01:12:25.651Z,1017.47
2018-07-22T01:13:26.239Z,1017.42
2018-07-22T01:14:26.823Z,1017.40
2018-07-22T01:15:27.408Z,1017.45
2018-07-22T01:16:27.992Z,1017.46
2018-07-22T01:17:28.574Z,1017.41
2018-07-22T01:18:29.160Z,1017.45
2018-07-22T01:19:29.747Z,1017.43
2018-07-22T01:20:30.417Z,1017.38
2018-07-22T01:21:31.006Z,1017.40
2018-07-22T01:22:31.591Z,1017.43
2018-07-22T01:23:32.177Z,1017.45
2018-07-22T01:24:32.762Z,1017.42
2018-07-22T01:25:33.343Z,1017.33
2018-07-22T01:26:33.978Z,1017.42
2018-07-22T01:27:34.557Z,1017.36
2018-07-22T01:28:35.142Z,1017.26
2018-07-22T01:29:35.735Z,1017.29
2018-07-22T01:30:36.312Z,1017.32
2018-07-22T01:31:36.900Z,1017.31
2018-07-22T01:32:37.485Z,1017.31
2018-07-22T01:33:38.072Z,1017.33
2018-07-22T01:34:38.656Z,1017.25
2018-07-22T01:35:39.291Z,1017.37
2018-07-22T01:36:39.873Z,1017.26
2018-07-22T01:37:40.460Z,1017.25
2018-07-22T01:38:41.044Z,1017.26
2018-07-22T01:39:41.676Z,1017.23
2018-07-22T01:40:42.264Z,1017.26
2018-07-22T01:41:42.847Z,1017.26
2018-07-22T01:42:43.427Z,1017.26
2018-07-22T01:43:44.065Z,1017.24
2018-07-22T01:44:44.650Z,1017.30
2018-07-22T01:45:45.236Z,1017.23
2018-07-22T01:46:45.823Z,1017.27
2018-07-22T01:47:46.408Z,1017.23
2018-07-22T01:48:46.992Z,1017.20
2018-07-22T01:49:47.570Z,1017.17
2018-07-22T01:50:48.153Z,1017.25
2018-07-22T01:51:48.792Z,1017.26
2018-07-22T01:52:49.379Z,1017.23
2018-07-22T01:53:49.964Z,1017.21
2018-07-22T01:54:50.599Z,1017.27
2018-07-22T01:55:51.185Z,1017.23
2018-07-22T01:56:51.775Z,1017.18
2018-07-22T01:57:52.361Z,1017.22
2018-07-22T01:58:52.986Z,1017.18
2018-07-22T01:59:53.624Z,1017.15
2018-07-22T02:00:54.203Z,1017.26
2018-07-22T02:01:54.841Z,1017.16
2018-07-22T02:02:55.417Z,1017.15
2018-07-22T02:03:55.999Z,1017.19
2018-07-22T02:04:56.585Z,1017.14
2018-07-22T02:05:57.171Z,1017.15
2018-07-22T02:06:57.751Z,1017.13
2018-07-22T02:07:58.336Z,1017.11
2018-07-22T02:08:58.913Z,1017.13
2018-07-22T02:09:59.498Z,1017.16
2018-07-22T02:11:00.079Z,1017.13
2018-07-22T02:12:00.664Z,1017.13
2018-07-22T02:13:01.245Z,1017.13
2018-07-22T02:14:01.880Z,1017.06
2018-07-22T02:15:02.459Z,1017.04
2018-07-22T02:16:03.054Z,1017.12
2018-07-22T02:17:03.725Z,1017.06
2018-07-22T02:18:04.358Z,1017.12
2018-07-22T02:19:04.947Z,1017.01
2018-07-22T02:20:05.533Z,1017.09
2018-07-22T02:21:06.113Z,1016.91
2018-07-22T02:22:06.706Z,1016.98
2018-07-22T02:23:07.332Z,1017.02
2018-07-22T02:24:07.926Z,1017.08
2018-07-22T02:25:08.502Z,1017.10
2018-07-22T02:26:09.088Z,1017.03
2018-07-22T02:27:09.668Z,1016.98
2018-07-22T02:28:10.256Z,1017.09
2018-07-22T02:29:10.839Z,1017.00
2018-07-22T02:30:11.478Z,1017.01
2018-07-22T02:31:12.064Z,1017.01
2018-07-22T02:32:12.650Z,1017.06
2018-07-22T02:33:13.227Z,1016.98
2018-07-22T02:34:13.819Z,1016.99
2018-07-22T02:35:14.402Z,1016.98
2018-07-22T02:36:14.985Z,1016.89
2018-07-22T02:37:15.618Z,1016.95
2018-07-22T02:38:16.245Z,1016.90
2018-07-22T02:39:16.831Z,1017.05
2018-07-22T02:40:17.419Z,1017.00
2018-07-22T02:41:18.053Z,1016.96
2018-07-22T02:42:18.637Z,1017.05
2018-07-22T02:43:19.222Z,1016.98
2018-07-22T02:44:19.808Z,1016.99
2018-07-22T02:45:20.394Z,1016.99
2018-07-22T02:46:20.974Z,1017.02
2018-07-22T02:47:21.562Z,1016.95
2018-07-22T02:48:22.198Z,1016.92
2018-07-22T02:49:22.785Z,1016.95
2018-07-22T02:50:23.367Z,1017.00
2018-07-22T02:51:23.971Z,1016.92
2018-07-22T02:52:24.540Z,1016.85
2018-07-22T02:53:25.172Z,1016.84
2018-07-22T02:54:25.764Z,1016.87
2018-07-22T02:55:26.341Z,1016.87
2018-07-22T02:56:26.925Z,1016.83
2018-07-22T02:57:27.513Z,1016.83
2018-07-22T02:58:28.106Z,1016.90
2018-07-22T02:59:28.686Z,1016.80
2018-07-22T03:00:29.361Z,1016.76
2018-07-22T03:01:29.943Z,1016.78
2018-07-22T03:02:30.531Z,1016.73
2018-07-22T03:03:31.147Z,1016.71
2018-07-22T03:04:31.694Z,1016.76
2018-07-22T03:05:32.283Z,1016.71
2018-07-22T03:06:32.864Z,1016.75
2018-07-22T03:07:33.451Z,1016.71
2018-07-22T03:08:34.083Z,1016.69
2018-07-22T03:09:34.667Z,1016.61
2018-07-22T03:10:35.250Z,1016.75
2018-07-22T03:11:35.886Z,1016.76
2018-07-22T03:12:36.472Z,1016.72
2018-07-22T03:13:37.061Z,1016.66
2018-07-22T03:14:37.641Z,1016.71
2018-07-22T03:15:38.276Z,1016.68
2018-07-22T03:16:38.903Z,1016.68
2018-07-22T03:17:39.537Z,1016.70
2018-07-22T03:18:40.169Z,1016.68
2018-07-22T03:19:40.749Z,1016.75
2018-07-22T03:20:41.338Z,1016.68
2018-07-22T03:21:41.921Z,1016.70
2018-07-22T03:22:42.506Z,1016.72
2018-07-22T03:23:43.143Z,1016.70
2018-07-22T03:24:43.730Z,1016.63
2018-07-22T03:25:44.311Z,1016.73
2018-07-22T03:26:44.896Z,1016.76
2018-07-22T03:27:45.476Z,1016.69
2018-07-22T03:28:46.064Z,1016.67
2018-07-22T03:29:46.695Z,1016.69
2018-07-22T03:30:47.334Z,1016.63
2018-07-22T03:31:47.917Z,1016.65
2018-07-22T03:32:48.508Z,1016.60
2018-07-22T03:33:49.090Z,1016.68
2018-07-22T03:34:49.677Z,1016.66
2018-07-22T03:35:50.259Z,1016.60
2018-07-22T03:36:50.848Z,1016.69
2018-07-22T03:37:51.434Z,1016.62
2018-07-22T03:38:52.027Z,1016.72
2018-07-22T03:39:52.657Z,1016.68
2018-07-22T03:40:53.244Z,1016.66
2018-07-22T03:41:53.831Z,1016.65
2018-07-22T03:42:54.410Z,1016.67
2018-07-22T03:43:54.995Z,1016.60
2018-07-22T03:44:55.577Z,1016.64
2018-07-22T03:45:56.164Z,1016.73
2018-07-22T03:46:56.748Z,1016.62
2018-07-22T03:47:57.334Z,1016.66
2018-07-22T03:48:57.960Z,1016.63
2018-07-22T03:49:58.555Z,1016.66
2018-07-22T03:50:59.184Z,1016.63
2018-07-22T03:51:59.821Z,1016.66
2018-07-22T03:53:00.397Z,1016.66
2018-07-22T03:54:00.977Z,1016.65
2018-07-22T03:55:01.563Z,1016.71
2018-07-22T03:56:02.195Z,1016.70
2018-07-22T03:57:02.780Z,1016.67
2018-07-22T03:58:03.368Z,1016.69
2018-07-22T03:59:03.992Z,1016.64
2018-07-22T04:00:04.580Z,1016.62
2018-07-22T04:01:05.160Z,1016.59
2018-07-22T04:02:05.746Z,1016.65
2018-07-22T04:03:06.415Z,1016.60
2018-07-22T04:04:07.014Z,1016.63
2018-07-22T04:05:07.599Z,1016.58
2018-07-22T04:06:08.185Z,1016.61
2018-07-22T04:07:08.824Z,1016.57
2018-07-22T04:08:09.451Z,1016.58
2018-07-22T04:09:10.078Z,1016.57
2018-07-22T04:10:10.666Z,1016.58
2018-07-22T04:11:11.294Z,1016.59
2018-07-22T04:12:11.882Z,1016.63
2018-07-22T04:13:12.460Z,1016.57
2018-07-22T04:14:13.049Z,1016.57
2018-07-22T04:15:13.673Z,1016.57
2018-07-22T04:16:14.260Z,1016.52
2018-07-22T04:17:14.845Z,1016.53
2018-07-22T04:18:15.432Z,1016.54
2018-07-22T04:20:35.408Z,1016.58
2018-07-22T04:21:35.992Z,1016.48
2018-07-22T04:22:36.625Z,1016.55
2018-07-22T04:23:37.263Z,1016.51
2018-07-22T04:24:37.844Z,1016.57
2018-07-22T04:25:38.433Z,1016.57
2018-07-22T04:26:39.018Z,1016.59
2018-07-22T04:27:39.605Z,1016.59
2018-07-22T04:28:40.187Z,1016.53
2018-07-22T04:29:40.771Z,1016.60
2018-07-22T04:30:41.359Z,1016.57
2018-07-22T04:31:41.946Z,1016.61
2018-07-22T04:32:42.532Z,1016.61
2018-07-22T04:33:43.163Z,1016.65
2018-07-22T04:34:43.746Z,1016.55
2018-07-22T04:35:44.329Z,1016.56
2018-07-22T04:36:44.918Z,1016.51
2018-07-22T04:37:45.554Z,1016.54
2018-07-22T04:38:46.175Z,1016.52
2018-07-22T04:39:46.813Z,1016.56
2018-07-22T04:40:47.427Z,1016.49
2018-07-22T04:41:48.030Z,1016.54
2018-07-22T04:42:48.609Z,1016.46
2018-07-22T04:43:49.188Z,1016.49
2018-07-22T04:44:49.778Z,1016.51
2018-07-22T04:45:50.357Z,1016.51
2018-07-22T04:46:50.939Z,1016.60
2018-07-22T04:47:51.573Z,1016.59
2018-07-22T04:48:52.157Z,1016.56
2018-07-22T04:49:52.735Z,1016.65
2018-07-22T04:50:53.322Z,1016.58
2018-07-22T04:51:53.909Z,1016.58
2018-07-22T04:53:56.061Z,1016.64
2018-07-22T04:54:56.636Z,1016.60
2018-07-22T04:55:57.264Z,1016.64
2018-07-22T04:56:57.843Z,1016.60
2018-07-22T04:57:58.417Z,1016.64
2018-07-22T04:58:58.999Z,1016.58
2018-07-22T04:59:59.628Z,1016.59
2018-07-22T05:01:00.201Z,1016.53
2018-07-22T05:02:00.942Z,1016.62
2018-07-22T05:03:01.519Z,1016.65
2018-07-22T05:04:02.095Z,1016.67
2018-07-22T05:05:02.678Z,1016.59
2018-07-22T05:06:03.249Z,1016.62
2018-07-22T05:07:03.833Z,1016.65
2018-07-22T05:08:04.410Z,1016.64
2018-07-22T05:09:04.991Z,1016.65
2018-07-22T05:10:05.572Z,1016.69
2018-07-22T05:11:06.154Z,1016.62
2018-07-22T05:12:06.730Z,1016.59
2018-07-22T05:13:07.360Z,1016.70
2018-07-22T05:14:07.937Z,1016.73
2018-07-22T05:15:08.516Z,1016.65
2018-07-22T05:16:09.099Z,1016.66
2018-07-22T05:17:09.675Z,1016.65
2018-07-22T05:18:10.252Z,1016.69
2018-07-22T05:19:10.881Z,1016.69
2018-07-22T05:20:11.505Z,1016.68
2018-07-22T05:21:12.090Z,1016.71
2018-07-22T05:22:12.667Z,1016.63
2018-07-22T05:23:13.249Z,1016.70
2018-07-22T05:24:13.827Z,1016.73
2018-07-22T05:25:14.454Z,1016.81
2018-07-22T05:26:15.033Z,1016.83
2018-07-22T05:27:15.615Z,1016.73
2018-07-22T05:28:16.209Z,1016.82
2018-07-22T05:29:16.823Z,1016.81
2018-07-22T05:30:22.456Z,1016.74
2018-07-22T05:31:23.230Z,1016.81
2018-07-22T05:32:23.913Z,1016.82
2018-07-22T05:33:24.592Z,1016.82
2018-07-22T05:34:25.219Z,1016.80
2018-07-22T05:35:25.800Z,1016.78
2018-07-22T05:36:26.384Z,1016.87
2018-07-22T05:37:26.954Z,1016.81
2018-07-22T05:38:27.537Z,1016.80
2018-07-22T05:39:28.116Z,1016.84
2018-07-22T05:40:28.696Z,1016.78
2018-07-22T05:41:29.271Z,1016.82
2018-07-22T05:42:29.854Z,1016.81
2018-07-22T05:43:30.428Z,1016.84
2018-07-22T05:44:31.010Z,1016.80
2018-07-22T05:45:31.588Z,1016.82
2018-07-22T05:46:32.169Z,1016.82
2018-07-22T05:47:32.799Z,1016.78
2018-07-22T05:48:33.378Z,1016.75
2018-07-22T05:49:34.104Z,1016.85
2018-07-22T05:50:34.736Z,1016.73
2018-07-22T05:51:35.364Z,1016.77
2018-07-22T05:52:35.943Z,1016.82
2018-07-22T05:53:36.518Z,1016.74
2018-07-22T05:54:37.099Z,1016.88
2018-07-22T05:55:37.724Z,1016.87
2018-07-22T05:56:38.308Z,1016.85
2018-07-22T05:57:38.882Z,1016.88
2018-07-22T05:58:39.463Z,1016.91
2018-07-22T05:59:40.082Z,1016.85
2018-07-22T06:00:40.659Z,1016.91
2018-07-22T06:01:41.284Z,1016.86
2018-07-22T06:02:41.864Z,1016.89
2018-07-22T06:03:42.440Z,1016.83
2018-07-22T06:04:43.021Z,1016.85
2018-07-22T06:05:43.648Z,1016.87
2018-07-22T06:06:44.225Z,1016.93
2018-07-22T06:07:45.006Z,1016.86
2018-07-22T06:08:45.635Z,1016.81
2018-07-22T06:09:46.210Z,1016.93
2018-07-22T06:10:46.787Z,1016.87
2018-07-22T06:11:47.368Z,1016.93
2018-07-22T06:12:47.939Z,1016.93
2018-07-22T06:13:48.514Z,1016.95
2018-07-22T06:14:49.092Z,1016.93
2018-07-22T06:15:49.675Z,1016.86
2018-07-22T06:16:50.248Z,1016.98
2018-07-22T06:17:50.826Z,1016.93
2018-07-22T06:18:51.454Z,1016.98
2018-07-22T06:19:52.033Z,1016.97
2018-07-22T06:20:52.612Z,1016.99
2018-07-22T06:21:53.193Z,1016.95
2018-07-22T06:22:53.822Z,1016.96
2018-07-22T06:23:54.398Z,1016.97
2018-07-22T06:24:55.028Z,1016.99
2018-07-22T06:25:55.601Z,1016.93
2018-07-22T06:26:56.229Z,1016.99
2018-07-22T06:27:56.808Z,1016.95
2018-07-22T06:28:57.383Z,1017.03
2018-07-22T06:29:57.959Z,1016.93
2018-07-22T06:30:58.542Z,1016.93
2018-07-22T06:31:59.117Z,1016.93
2018-07-22T06:32:59.700Z,1016.95
2018-07-22T06:34:00.273Z,1016.98
2018-07-22T06:35:00.853Z,1016.99
2018-07-22T06:36:01.430Z,1016.98
2018-07-22T06:37:02.011Z,1016.96
2018-07-22T06:38:02.592Z,1016.99
2018-07-22T06:39:03.222Z,1017.10
2018-07-22T06:40:03.852Z,1016.99
2018-07-22T06:41:04.474Z,1017.04
2018-07-22T06:42:05.058Z,1017.07
2018-07-22T06:43:05.628Z,1017.10
2018-07-22T06:44:06.205Z,1017.04
2018-07-22T06:45:06.788Z,1017.02
2018-07-22T06:46:07.400Z,1017.10
2018-07-22T06:47:07.942Z,1017.05
2018-07-22T06:48:08.521Z,1017.11
2018-07-22T06:49:09.105Z,1017.03
2018-07-22T06:50:09.676Z,1017.10
2018-07-22T06:51:10.258Z,1017.14
2018-07-22T06:52:10.838Z,1017.10
2018-07-22T06:53:11.411Z,1017.05
2018-07-22T06:54:12.046Z,1017.15
2018-07-22T06:55:12.577Z,1017.09
2018-07-22T06:56:13.207Z,1017.13
2018-07-22T06:57:13.895Z,1017.12
2018-07-22T06:58:14.422Z,1017.17
2018-07-22T06:59:14.996Z,1017.18
2018-07-22T07:00:15.579Z,1017.14
2018-07-22T07:01:16.162Z,1017.19
2018-07-22T07:02:16.742Z,1017.19
2018-07-22T07:03:17.371Z,1017.16
2018-07-22T07:04:17.951Z,1017.15
2018-07-22T07:05:18.584Z,1017.16
2018-07-22T07:06:19.155Z,1017.18
2018-07-22T07:07:19.734Z,1017.16
2018-07-22T07:08:20.309Z,1017.14
2018-07-22T07:09:20.891Z,1017.20
2018-07-22T07:10:21.472Z,1017.07
2018-07-22T07:11:22.147Z,1017.16
2018-07-22T07:12:22.726Z,1017.12
2018-07-22T07:13:23.356Z,1017.09
2018-07-22T07:14:23.930Z,1017.09
2018-07-22T07:15:24.516Z,1017.13
2018-07-22T07:16:25.141Z,1017.13
2018-07-22T07:17:25.720Z,1017.13
2018-07-22T07:18:26.301Z,1017.14
2018-07-22T07:19:26.880Z,1017.19
2018-07-22T07:20:27.459Z,1017.13
2018-07-22T07:21:28.040Z,1017.16
2018-07-22T07:22:28.621Z,1017.19
2018-07-22T07:23:29.201Z,1017.14
2018-07-22T07:24:29.833Z,1017.19
2018-07-22T07:25:30.410Z,1017.19
2018-07-22T07:26:30.992Z,1017.08
2018-07-22T07:27:31.567Z,1017.14
2018-07-22T07:28:32.201Z,1017.19
2018-07-22T07:29:32.831Z,1017.17
2018-07-22T07:30:33.409Z,1017.14
2018-07-22T07:31:33.991Z,1017.17
2018-07-22T07:32:34.571Z,1017.15
2018-07-22T07:33:35.241Z,1017.17
2018-07-22T07:34:35.806Z,1017.20
2018-07-22T07:35:36.389Z,1017.22
2018-07-22T07:36:36.967Z,1017.16
2018-07-22T07:37:37.547Z,1017.14
2018-07-22T07:38:38.126Z,1017.15
2018-07-22T07:39:38.750Z,1017.19
2018-07-22T07:40:39.337Z,1017.13
2018-07-22T07:41:39.909Z,1017.22
2018-07-22T07:42:40.491Z,1017.10
2018-07-22T07:43:41.116Z,1017.20
2018-07-22T07:44:41.703Z,1017.13
2018-07-22T07:45:42.333Z,1017.16
2018-07-22T07:46:42.911Z,1017.10
2018-07-22T07:47:43.492Z,1017.12
2018-07-22T07:48:44.119Z,1017.15
2018-07-22T07:49:44.696Z,1017.16
2018-07-22T07:50:45.328Z,1017.17
2018-07-22T07:51:45.904Z,1017.20
2018-07-22T07:52:46.483Z,1017.17
2018-07-22T07:53:47.057Z,1017.21
2018-07-22T07:54:47.692Z,1017.23
2018-07-22T07:55:48.271Z,1017.12
2018-07-22T07:56:48.852Z,1017.20
2018-07-22T07:57:49.422Z,1017.19
2018-07-22T07:58:50.007Z,1017.11
2018-07-22T07:59:50.587Z,1017.18
2018-07-22T08:00:51.219Z,1017.10
2018-07-22T08:01:51.796Z,1017.20
2018-07-22T08:02:52.377Z,1017.19
2018-07-22T08:03:52.961Z,1017.18
2018-07-22T08:04:53.536Z,1017.22
2018-07-22T08:05:54.117Z,1017.23
2018-07-22T08:06:54.696Z,1017.17
2018-07-22T08:07:55.276Z,1017.18
2018-07-22T08:08:55.857Z,1017.18
2018-07-22T08:09:56.438Z,1017.18
2018-07-22T08:10:57.013Z,1017.25
2018-07-22T08:11:57.590Z,1017.16
2018-07-22T08:12:58.220Z,1017.22
2018-07-22T08:13:58.795Z,1017.18
2018-07-22T08:14:59.427Z,1017.21
2018-07-22T08:16:00.009Z,1017.22
2018-07-22T08:17:00.796Z,1017.19
2018-07-22T08:18:01.368Z,1017.26
2018-07-22T08:19:01.985Z,1017.28
2018-07-22T08:20:02.532Z,1017.25
2018-07-22T08:21:03.113Z,1017.31
2018-07-22T08:22:03.798Z,1017.32
2018-07-22T08:23:04.316Z,1017.32
2018-07-22T08:24:04.898Z,1017.29
2018-07-22T08:25:05.472Z,1017.23
2018-07-22T08:26:06.145Z,1017.27
2018-07-22T08:27:06.682Z,1017.19
2018-07-22T08:28:07.261Z,1017.24
2018-07-22T08:29:07.841Z,1017.26
2018-07-22T08:30:08.416Z,1017.22
2018-07-22T08:31:09.004Z,1017.16
2018-07-22T08:32:09.643Z,1017.23
2018-07-22T08:33:10.225Z,1017.25
2018-07-22T08:34:10.857Z,1017.31
2018-07-22T08:35:11.442Z,1017.25
2018-07-22T08:36:12.074Z,1017.25
2018-07-22T08:37:12.653Z,1017.27
2018-07-22T08:38:13.238Z,1017.22
2018-07-22T08:39:13.826Z,1017.22
2018-07-22T08:40:14.405Z,1017.23
2018-07-22T08:41:15.044Z,1017.28
2018-07-22T08:42:15.574Z,1017.26
2018-07-22T08:43:16.155Z,1017.24
2018-07-22T08:44:16.783Z,1017.23
2018-07-22T08:45:17.367Z,1017.24
2018-07-22T08:46:17.946Z,1017.18
2018-07-22T08:47:18.525Z,1017.16
2018-07-22T08:48:19.113Z,1017.15
2018-07-22T08:49:19.695Z,1017.18
2018-07-22T08:50:20.280Z,1017.18
2018-07-22T08:51:20.863Z,1017.18
2018-07-22T08:52:21.499Z,1017.24
2018-07-22T08:53:22.085Z,1017.25
2018-07-22T08:54:22.719Z,1017.24
2018-07-22T08:55:23.303Z,1017.28
2018-07-22T08:56:23.936Z,1017.20
2018-07-22T08:57:24.523Z,1017.22
2018-07-22T08:58:25.101Z,1017.20
2018-07-22T08:59:25.691Z,1017.27
2018-07-22T09:00:26.271Z,1017.19
2018-07-22T09:01:26.856Z,1017.28
2018-07-22T09:02:32.492Z,1017.25
2018-07-22T09:03:33.075Z,1017.24
2018-07-22T09:04:33.660Z,1017.17
2018-07-22T09:05:34.304Z,1017.26
2018-07-22T09:06:34.829Z,1017.19
2018-07-22T09:07:35.419Z,1017.19
2018-07-22T09:08:36.008Z,1017.22
2018-07-22T09:09:36.637Z,1017.24
2018-07-22T09:10:37.228Z,1017.14
2018-07-22T09:11:37.858Z,1017.25
2018-07-22T09:12:38.445Z,1017.21
2018-07-22T09:13:39.033Z,1017.19
2018-07-22T09:14:39.613Z,1017.19
2018-07-22T09:15:40.197Z,1017.21
2018-07-22T09:16:40.783Z,1017.14
2018-07-22T09:17:41.376Z,1017.26
2018-07-22T09:18:42.003Z,1017.16
2018-07-22T09:19:42.590Z,1017.19
2018-07-22T09:20:43.226Z,1017.25
2018-07-22T09:21:43.811Z,1017.19
2018-07-22T09:22:44.393Z,1017.20
2018-07-22T09:23:44.978Z,1017.20
2018-07-22T09:24:45.567Z,1017.21
2018-07-22T09:25:46.202Z,1017.12
2018-07-22T09:26:46.792Z,1017.12
2018-07-22T09:27:47.424Z,1017.20
2018-07-22T09:28:48.004Z,1017.16
2018-07-22T09:29:48.588Z,1017.20
2018-07-22T09:30:49.224Z,1017.10
2018-07-22T09:31:49.806Z,1017.14
2018-07-22T09:32:50.387Z,1017.22
2018-07-22T09:33:50.970Z,1017.20
2018-07-22T09:34:51.555Z,1017.16
2018-07-22T09:35:52.201Z,1017.18
2018-07-22T09:36:52.729Z,1017.17
2018-07-22T09:37:53.317Z,1017.16
2018-07-22T09:38:53.900Z,1017.21
2018-07-22T09:39:54.490Z,1017.19
2018-07-22T09:40:55.070Z,1017.13
2018-07-22T09:41:55.774Z,1017.10
2018-07-22T09:42:56.297Z,1017.14
2018-07-22T09:43:56.925Z,1017.07
2018-07-22T09:44:57.656Z,1017.11
2018-07-22T09:45:58.246Z,1017.17
2018-07-22T09:46:58.880Z,1017.08
2018-07-22T09:47:59.509Z,1017.11
2018-07-22T09:49:00.054Z,1017.19
2018-07-22T09:50:00.640Z,1017.24
2018-07-22T09:51:01.428Z,1017.17
2018-07-22T09:52:02.010Z,1017.13
2018-07-22T09:53:02.599Z,1017.20
2018-07-22T09:54:03.233Z,1017.06
2018-07-22T09:55:03.823Z,1017.14
2018-07-22T09:56:04.409Z,1017.22
2018-07-22T09:57:04.996Z,1017.14
2018-07-22T09:58:05.636Z,1017.17
2018-07-22T09:59:06.278Z,1017.22
2018-07-22T10:00:06.900Z,1017.14
2018-07-22T10:01:07.484Z,1017.18
2018-07-22T10:02:08.071Z,1017.21
2018-07-22T10:03:08.853Z,1017.20
2018-07-22T10:04:09.443Z,1017.18
2018-07-22T10:05:10.028Z,1017.21
2018-07-22T10:06:10.667Z,1017.31
2018-07-22T10:07:11.256Z,1017.24
2018-07-22T10:08:11.846Z,1017.28
2018-07-22T10:09:12.436Z,1017.23
2018-07-22T10:10:13.071Z,1017.21
2018-07-22T10:11:13.669Z,1017.19
2018-07-22T10:12:14.240Z,1017.21
2018-07-22T10:13:14.872Z,1017.27
2018-07-22T10:14:15.463Z,1017.28
2018-07-22T10:15:16.046Z,1017.23
2018-07-22T10:16:16.632Z,1017.28
2018-07-22T10:17:17.268Z,1017.33
2018-07-22T10:18:17.856Z,1017.20
2018-07-22T10:19:18.437Z,1017.28
2018-07-22T10:20:19.077Z,1017.29
2018-07-22T10:21:19.663Z,1017.28
2018-07-22T10:22:20.252Z,1017.22
2018-07-22T10:23:20.886Z,1017.18
2018-07-22T10:24:21.425Z,1017.21
2018-07-22T10:25:22.014Z,1017.18
2018-07-22T10:26:22.650Z,1017.22
2018-07-22T10:27:23.237Z,1017.23
2018-07-22T10:28:23.825Z,1017.20
2018-07-22T10:29:24.448Z,1017.26
2018-07-22T10:30:25.033Z,1017.19
2018-07-22T10:31:25.625Z,1017.29
2018-07-22T10:32:26.256Z,1017.23
2018-07-22T10:33:26.841Z,1017.28
2018-07-22T10:34:27.425Z,1017.31
2018-07-22T10:35:28.013Z,1017.30
2018-07-22T10:36:28.605Z,1017.25
2018-07-22T10:37:29.241Z,1017.27
2018-07-22T10:38:29.824Z,1017.23
2018-07-22T10:39:30.414Z,1017.27
2018-07-22T10:40:31.054Z,1017.32
2018-07-22T10:41:31.637Z,1017.26
2018-07-22T10:42:32.227Z,1017.29
2018-07-22T10:43:32.818Z,1017.27
2018-07-22T10:44:33.453Z,1017.27
2018-07-22T10:45:34.043Z,1017.28
2018-07-22T10:46:34.631Z,1017.35
2018-07-22T10:47:35.219Z,1017.22
2018-07-22T10:48:35.802Z,1017.24
2018-07-22T10:49:36.434Z,1017.23
2018-07-22T10:50:37.026Z,1017.26
2018-07-22T10:51:37.661Z,1017.22
2018-07-22T10:52:38.251Z,1017.26
2018-07-22T10:53:38.842Z,1017.18
2018-07-22T10:54:39.431Z,1017.30
2018-07-22T10:55:40.019Z,1017.22
2018-07-22T10:56:40.618Z,1017.21
2018-07-22T10:57:41.291Z,1017.20
2018-07-22T10:58:41.930Z,1017.16
2018-07-22T10:59:42.523Z,1017.15
2018-07-22T11:00:43.158Z,1017.16
2018-07-22T11:01:43.753Z,1017.15
2018-07-22T11:02:44.347Z,1017.21
2018-07-22T11:03:44.933Z,1017.24
2018-07-22T11:04:45.518Z,1017.19
2018-07-22T11:05:46.161Z,1017.21
2018-07-22T11:06:46.751Z,1017.21
2018-07-22T11:07:47.341Z,1017.33
2018-07-22T11:08:47.933Z,1017.29
2018-07-22T11:09:48.521Z,1017.23
2018-07-22T11:10:49.111Z,1017.25
2018-07-22T11:11:49.705Z,1017.27
2018-07-22T11:12:50.296Z,1017.21
2018-07-22T11:13:50.888Z,1017.27
2018-07-22T11:14:51.599Z,1017.24
2018-07-22T11:16:05.932Z,1017.22
2018-07-22T11:17:06.578Z,1017.23
2018-07-22T11:18:07.216Z,1017.23
2018-07-22T11:19:07.855Z,1017.14
2018-07-22T11:20:08.442Z,1017.30
2018-07-22T11:21:09.075Z,1017.20
2018-07-22T11:22:09.632Z,1017.13
2018-07-22T11:23:10.222Z,1017.14
2018-07-22T11:24:10.809Z,1017.14
2018-07-22T11:25:11.400Z,1017.19
2018-07-22T11:26:11.996Z,1017.21
2018-07-22T11:27:12.588Z,1017.13
2018-07-22T11:28:13.178Z,1017.14
2018-07-22T11:29:13.771Z,1017.26
2018-07-22T11:30:14.364Z,1017.21
2018-07-22T11:31:15.057Z,1017.22
2018-07-22T11:32:15.697Z,1017.12
2018-07-22T11:33:16.392Z,1017.17
2018-07-22T11:34:16.986Z,1017.16
2018-07-22T11:35:17.583Z,1017.07
2018-07-22T11:36:18.217Z,1017.18
2018-07-22T11:37:18.905Z,1017.24
2018-07-22T11:38:19.502Z,1017.07
2018-07-22T11:39:20.135Z,1017.06
2018-07-22T11:41:23.524Z,1017.11
2018-07-22T11:42:24.117Z,1017.08
2018-07-22T11:43:24.712Z,1017.11
2018-07-22T11:44:25.303Z,1017.06
2018-07-22T11:45:25.895Z,1017.14
2018-07-22T11:46:26.490Z,1017.00
2018-07-22T11:47:27.084Z,1017.00
2018-07-22T11:48:27.673Z,1017.01
2018-07-22T11:49:28.471Z,1017.05
2018-07-22T11:50:29.121Z,1016.98
2018-07-22T11:51:29.657Z,1017.04
2018-07-22T11:52:30.300Z,1017.02
2018-07-22T11:53:30.941Z,1017.02
2018-07-22T11:54:31.538Z,1017.02
2018-07-22T11:55:32.135Z,1017.05
2018-07-22T11:56:32.725Z,1017.03
2018-07-22T11:57:33.324Z,1016.94
2018-07-22T11:58:33.962Z,1017.02
2018-07-22T11:59:34.561Z,1017.07
2018-07-22T12:00:35.156Z,1017.06
2018-07-22T12:01:35.765Z,1017.07
2018-07-22T12:02:36.349Z,1017.06
2018-07-22T12:03:36.943Z,1017.01
2018-07-22T12:04:37.536Z,1017.04
2018-07-22T12:05:38.132Z,1017.03
2018-07-22T12:06:38.728Z,1017.08
2018-07-22T12:07:39.337Z,1017.02
2018-07-22T12:08:39.963Z,1017.08
2018-07-22T12:09:40.564Z,1017.07
2018-07-22T12:10:41.156Z,1017.04
2018-07-22T12:11:41.792Z,1017.08
2018-07-22T12:12:42.385Z,1017.12
2018-07-22T12:13:43.032Z,1017.15
2018-07-22T12:14:43.630Z,1017.08
2018-07-22T12:15:44.226Z,1017.10
2018-07-22T12:16:44.825Z,1017.13